createdAt,value
2017-09-04T00:01:05.882Z,100377.05
2017-09-04T00:03:33.469Z,100377.77
2017-09-04T00:06:00.919Z,100376.56
2017-09-04T00:08:28.480Z,100373.46
2017-09-04T00:10:55.935Z,100373.94
2017-09-04T00:13:23.395Z,100370.56
2017-09-04T00:15:51.145Z,100372.03
2017-09-04T00:18:18.629Z,100375.81
2017-09-04T00:20:46.105Z,100370.05
2017-09-04T00:23:13.591Z,100376.56
2017-09-04T00:25:41.022Z,100373.68
2017-09-04T00:28:08.492Z,100379.19
2017-09-04T00:30:35.934Z,100380.82
2017-09-04T00:33:03.465Z,100378.30
2017-09-04T00:35:31.022Z,100380.70
2017-09-04T00:37:58.478Z,100379.08
2017-09-04T00:40:25.914Z,100372.08
2017-09-04T00:42:53.395Z,100370.81
2017-09-04T00:45:20.833Z,100377.10
2017-09-04T00:47:48.396Z,100376.55
2017-09-04T00:50:15.943Z,100385.13
2017-09-04T00:52:43.388Z,100383.55
2017-09-04T00:55:10.995Z,100382.23
2017-09-04T00:57:38.434Z,100381.78
2017-09-04T01:00:05.906Z,100380.28
2017-09-04T01:02:33.342Z,100378.40
2017-09-04T01:05:00.888Z,100375.89
2017-09-04T01:07:28.341Z,100375.22
2017-09-04T01:09:55.799Z,100378.70
2017-09-04T01:12:23.235Z,100374.62
2017-09-04T01:14:50.756Z,100378.24
2017-09-04T01:17:18.202Z,100379.37
2017-09-04T01:19:46.432Z,100377.97
2017-09-04T01:22:13.869Z,100371.97
2017-09-04T01:24:41.345Z,100369.46
2017-09-04T01:27:08.786Z,100373.81
2017-09-04T01:29:36.253Z,100380.83
2017-09-04T01:32:03.702Z,100376.41
2017-09-04T01:34:31.277Z,100376.72
2017-09-04T01:36:58.718Z,100375.70
2017-09-04T01:39:26.183Z,100375.38
2017-09-04T01:41:53.629Z,100372.91
2017-09-04T01:44:21.105Z,100375.48
2017-09-04T01:46:48.610Z,100375.83
2017-09-04T01:49:16.082Z,100376.18
2017-09-04T01:51:43.522Z,100375.06
2017-09-04T01:54:10.994Z,100373.45
2017-09-04T01:56:38.450Z,100373.54
2017-09-04T01:59:05.923Z,100369.17
2017-09-04T02:01:33.388Z,100364.77
2017-09-04T02:04:00.854Z,100365.42
2017-09-04T02:06:28.318Z,100367.09
2017-09-04T02:08:55.769Z,100367.43
2017-09-04T02:11:23.253Z,100371.25
2017-09-04T02:13:50.708Z,100371.91
2017-09-04T02:16:18.179Z,100368.69
2017-09-04T02:18:45.693Z,100368.53
2017-09-04T02:21:13.298Z,100374.72
2017-09-04T02:23:40.760Z,100366.90
2017-09-04T02:26:08.274Z,100368.94
2017-09-04T02:28:35.729Z,100366.50
2017-09-04T02:31:03.256Z,100363.11
2017-09-04T02:33:30.689Z,100361.00
2017-09-04T02:35:58.170Z,100361.61
2017-09-04T02:38:25.664Z,100361.44
2017-09-04T02:40:53.123Z,100359.70
2017-09-04T02:43:20.566Z,100363.27
2017-09-04T02:45:48.149Z,100368.70
2017-09-04T02:48:15.596Z,100371.00
2017-09-04T02:50:43.081Z,100365.41
2017-09-04T02:53:10.542Z,100370.00
2017-09-04T02:55:38.029Z,100366.98
2017-09-04T02:58:05.561Z,100366.44
2017-09-04T03:00:33.085Z,100365.84
2017-09-04T03:03:00.527Z,100359.19
2017-09-04T03:05:28.089Z,100364.43
2017-09-04T03:07:55.546Z,100362.07
2017-09-04T03:10:23.006Z,100368.00
2017-09-04T03:12:50.456Z,100360.05
2017-09-04T03:15:17.922Z,100365.23
2017-09-04T03:17:45.379Z,100369.96
2017-09-04T03:20:12.827Z,100372.53
2017-09-04T03:22:40.291Z,100372.91
2017-09-04T03:25:07.740Z,100366.23
2017-09-04T03:27:35.503Z,100373.81
2017-09-04T03:30:02.985Z,100370.61
2017-09-04T03:32:30.452Z,100368.33
2017-09-04T03:34:57.989Z,100369.24
2017-09-04T03:37:25.446Z,100372.66
2017-09-04T03:39:52.878Z,100366.56
2017-09-04T03:42:20.373Z,100373.86
2017-09-04T03:44:47.806Z,100370.31
2017-09-04T03:47:15.262Z,100373.92
2017-09-04T03:49:42.697Z,100370.05
2017-09-04T03:52:10.164Z,100379.05
2017-09-04T03:54:37.598Z,100378.00
2017-09-04T03:57:05.091Z,100374.61
2017-09-04T03:59:32.531Z,100383.38
2017-09-04T04:02:00.005Z,100373.11
2017-09-04T04:04:27.441Z,100381.19
2017-09-04T04:06:54.902Z,100380.77
2017-09-04T04:09:22.374Z,100385.39
2017-09-04T04:11:49.932Z,100386.09
2017-09-04T04:14:17.383Z,100383.74
2017-09-04T04:16:44.947Z,100383.84
2017-09-04T04:19:12.400Z,100385.30
2017-09-04T04:21:39.963Z,100383.84
2017-09-04T04:24:07.518Z,100378.25
2017-09-04T04:26:35.002Z,100387.09
2017-09-04T04:29:02.439Z,100384.43
2017-09-04T04:31:29.997Z,100383.95
2017-09-04T04:33:57.505Z,100378.63
2017-09-04T04:36:24.974Z,100383.01
2017-09-04T04:38:52.477Z,100384.56
2017-09-04T04:41:19.937Z,100382.53
2017-09-04T04:43:47.788Z,100386.69
2017-09-04T04:46:15.347Z,100390.44
2017-09-04T04:48:42.902Z,100395.50
2017-09-04T04:51:10.330Z,100395.42
2017-09-04T04:53:37.823Z,100402.08
2017-09-04T04:56:05.380Z,100402.55
2017-09-04T04:58:32.843Z,100414.20
2017-09-04T05:01:00.399Z,100411.27
2017-09-04T05:03:27.887Z,100418.14
2017-09-04T05:05:55.402Z,100414.48
2017-09-04T05:08:22.882Z,100417.47
2017-09-04T05:10:50.335Z,100413.02
2017-09-04T05:13:17.799Z,100416.56
2017-09-04T05:15:45.332Z,100416.09
2017-09-04T05:18:12.890Z,100411.77
2017-09-04T05:20:40.366Z,100412.22
2017-09-04T05:23:07.851Z,100410.45
2017-09-04T05:25:35.298Z,100409.58
2017-09-04T05:28:02.830Z,100413.58
2017-09-04T05:30:30.301Z,100415.34
2017-09-04T05:32:57.769Z,100425.94
2017-09-04T05:35:25.434Z,100416.51
2017-09-04T05:37:52.901Z,100422.30
2017-09-04T05:40:20.405Z,100426.65
2017-09-04T05:42:47.891Z,100424.27
2017-09-04T05:45:15.367Z,100425.74
2017-09-04T05:47:43.243Z,100431.45
2017-09-04T05:50:10.739Z,100424.03
2017-09-04T05:52:39.022Z,100434.36
2017-09-04T05:55:06.498Z,100436.92
2017-09-04T05:57:34.049Z,100437.89
2017-09-04T06:00:01.549Z,100442.88
2017-09-04T06:02:28.990Z,100441.27
2017-09-04T06:04:56.441Z,100447.09
2017-09-04T06:07:23.897Z,100456.78
2017-09-04T06:09:51.361Z,100452.80
2017-09-04T06:12:18.803Z,100451.61
2017-09-04T06:14:46.265Z,100452.88
2017-09-04T06:17:13.794Z,100452.98
2017-09-04T06:19:41.256Z,100453.82
2017-09-04T06:22:08.828Z,100449.32
2017-09-04T06:24:36.297Z,100449.73
2017-09-04T06:27:03.737Z,100451.28
2017-09-04T06:29:31.249Z,100452.07
2017-09-04T06:31:58.735Z,100451.28
2017-09-04T06:34:26.230Z,100458.02
2017-09-04T06:36:53.713Z,100452.12
2017-09-04T06:39:21.520Z,100447.02
2017-09-04T06:41:48.980Z,100452.84
2017-09-04T06:44:16.449Z,100452.78
2017-09-04T06:46:43.991Z,100441.09
2017-09-04T06:49:11.541Z,100438.42
2017-09-04T06:51:38.987Z,100440.50
2017-09-04T06:54:06.518Z,100450.78
2017-09-04T06:56:33.989Z,100453.50
2017-09-04T06:59:01.458Z,100458.40
2017-09-04T07:01:28.897Z,100450.97
2017-09-04T07:03:56.338Z,100456.16
2017-09-04T07:06:23.804Z,100451.39
2017-09-04T07:08:51.263Z,100461.56
2017-09-04T07:11:18.726Z,100458.16
2017-09-04T07:13:46.209Z,100456.02
2017-09-04T07:16:13.765Z,100457.17
2017-09-04T07:18:41.690Z,100453.09
2017-09-04T07:21:09.263Z,100457.55
2017-09-04T07:23:36.754Z,100450.91
2017-09-04T07:26:04.226Z,100454.95
2017-09-04T07:28:31.678Z,100456.27
2017-09-04T07:30:59.149Z,100452.89
2017-09-04T07:33:26.690Z,100455.92
2017-09-04T07:35:54.170Z,100464.66
2017-09-04T07:38:21.639Z,100462.09
2017-09-04T07:40:49.148Z,100465.55
2017-09-04T07:43:16.606Z,100471.41
2017-09-04T07:45:44.087Z,100469.09
2017-09-04T07:48:11.534Z,100481.64
2017-09-04T07:50:39.001Z,100476.91
2017-09-04T07:53:06.446Z,100476.98
2017-09-04T07:55:33.952Z,100482.77
2017-09-04T07:58:01.408Z,100481.86
2017-09-04T08:00:28.866Z,100485.02
2017-09-04T08:02:56.336Z,100489.34
2017-09-04T08:05:23.824Z,100489.92
2017-09-04T08:07:51.289Z,100484.30
2017-09-04T08:10:18.840Z,100487.52
2017-09-04T08:12:46.322Z,100490.31
2017-09-04T08:15:13.799Z,100492.77
2017-09-04T08:17:41.265Z,100494.19
2017-09-04T08:20:08.725Z,100494.30
2017-09-04T08:22:36.193Z,100502.58
2017-09-04T08:25:03.634Z,100501.86
2017-09-04T08:27:31.097Z,100510.08
2017-09-04T08:29:58.570Z,100506.67
2017-09-04T08:32:26.062Z,100510.22
2017-09-04T08:34:53.626Z,100514.95
2017-09-04T08:37:21.098Z,100510.59
2017-09-04T08:39:48.538Z,100518.27
2017-09-04T08:42:16.084Z,100516.42
2017-09-04T08:44:43.543Z,100519.10
2017-09-04T08:47:11.025Z,100518.59
2017-09-04T08:49:38.475Z,100520.93
2017-09-04T08:52:06.087Z,100522.41
2017-09-04T08:54:33.545Z,100521.92
2017-09-04T08:57:01.027Z,100523.36
2017-09-04T08:59:28.498Z,100527.88
2017-09-04T09:01:55.952Z,100522.34
2017-09-04T09:04:23.427Z,100516.19
2017-09-04T09:06:50.946Z,100515.67
2017-09-04T09:09:18.419Z,100516.62
2017-09-04T09:11:45.968Z,100509.50
2017-09-04T09:14:13.451Z,100517.95
2017-09-04T09:16:40.909Z,100514.55
2017-09-04T09:19:08.434Z,100510.34
2017-09-04T09:21:35.883Z,100506.84
2017-09-04T09:24:03.361Z,100500.68
2017-09-04T09:26:30.847Z,100504.58
2017-09-04T09:28:58.319Z,100505.09
2017-09-04T09:31:25.767Z,100506.52
2017-09-04T09:33:53.242Z,100507.20
2017-09-04T09:36:20.697Z,100510.35
2017-09-04T09:38:48.158Z,100506.73
2017-09-04T09:41:15.751Z,100507.84
2017-09-04T09:43:43.343Z,100510.86
2017-09-04T09:46:10.890Z,100513.11
2017-09-04T09:48:38.358Z,100509.32
2017-09-04T09:51:05.830Z,100511.53
2017-09-04T09:53:33.269Z,100512.77
2017-09-04T09:56:00.767Z,100508.92
2017-09-04T09:58:28.206Z,100507.02
2017-09-04T10:00:55.688Z,100507.12
2017-09-04T10:03:23.537Z,100505.42
2017-09-04T10:05:51.007Z,100512.53
2017-09-04T10:08:18.451Z,100517.00
2017-09-04T10:10:45.926Z,100519.84
2017-09-04T10:13:13.425Z,100513.02
2017-09-04T10:15:40.927Z,100515.80
2017-09-04T10:18:08.391Z,100508.48
2017-09-04T10:20:35.870Z,100508.45
2017-09-04T10:23:03.311Z,100512.39
2017-09-04T10:25:30.810Z,100511.77
2017-09-04T10:27:58.266Z,100517.07
2017-09-04T10:30:25.755Z,100520.45
2017-09-04T10:32:53.205Z,100518.73
2017-09-04T10:35:20.670Z,100518.90
2017-09-04T10:37:48.127Z,100514.17
2017-09-04T10:40:15.614Z,100512.42
2017-09-04T10:42:43.075Z,100503.69
2017-09-04T10:45:10.564Z,100502.00
2017-09-04T10:47:38.010Z,100500.50
2017-09-04T10:50:05.473Z,100507.03
2017-09-04T10:52:32.927Z,100498.00
2017-09-04T10:55:00.435Z,100496.70
2017-09-04T10:57:27.875Z,100495.58
2017-09-04T10:59:55.342Z,100502.81
2017-09-04T11:02:22.817Z,100506.67
2017-09-04T11:04:50.290Z,100508.94
2017-09-04T11:07:17.754Z,100507.52
2017-09-04T11:09:45.742Z,100514.11
2017-09-04T11:12:13.214Z,100513.86
2017-09-04T11:14:40.683Z,100511.70
2017-09-04T11:17:08.154Z,100498.23
2017-09-04T11:19:35.609Z,100510.42
2017-09-04T11:22:03.417Z,100510.22
2017-09-04T11:24:30.890Z,100504.33
2017-09-04T11:26:58.353Z,100509.87
2017-09-04T11:29:25.785Z,100512.32
2017-09-04T11:31:53.260Z,100501.70
2017-09-04T11:34:21.002Z,100503.41
2017-09-04T11:36:48.499Z,100516.70
2017-09-04T11:39:16.011Z,100507.93
2017-09-04T11:41:43.578Z,100507.18
2017-09-04T11:44:11.021Z,100512.53
2017-09-04T11:46:38.494Z,100516.50
2017-09-04T11:49:05.962Z,100518.96
2017-09-04T11:51:33.431Z,100517.61
2017-09-04T11:54:00.896Z,100513.83
2017-09-04T11:56:28.364Z,100510.97
2017-09-04T11:58:55.830Z,100518.67
2017-09-04T12:01:23.353Z,100515.98
2017-09-04T12:03:50.941Z,100517.55
2017-09-04T12:06:19.437Z,100515.13
2017-09-04T12:08:46.910Z,100514.53
2017-09-04T12:11:14.350Z,100517.84
2017-09-04T12:13:41.816Z,100516.00
2017-09-04T12:16:09.255Z,100517.55
2017-09-04T12:18:36.717Z,100511.44
2017-09-04T12:21:04.149Z,100511.94
2017-09-04T12:23:31.623Z,100520.23
2017-09-04T12:25:59.344Z,100509.36
2017-09-04T12:28:26.858Z,100506.38
2017-09-04T12:30:54.382Z,100503.39
2017-09-04T12:33:21.850Z,100500.39
2017-09-04T12:35:49.350Z,100493.16
2017-09-04T12:38:16.945Z,100500.94
2017-09-04T12:40:44.397Z,100504.92
2017-09-04T12:43:11.892Z,100500.91
2017-09-04T12:45:39.342Z,100503.06
2017-09-04T12:48:06.824Z,100506.42
2017-09-04T12:50:34.358Z,100502.85
2017-09-04T12:53:01.799Z,100501.16
2017-09-04T12:55:29.288Z,100498.02
2017-09-04T12:57:56.743Z,100504.15
2017-09-04T13:00:24.217Z,100504.96
2017-09-04T13:02:51.658Z,100504.05
2017-09-04T13:05:19.124Z,100501.84
2017-09-04T13:07:46.565Z,100503.94
2017-09-04T13:13:21.517Z,100503.58
2017-09-04T13:15:54.586Z,100502.02
2017-09-04T13:18:27.593Z,100506.59
2017-09-04T13:21:00.798Z,100505.03
2017-09-04T13:23:33.947Z,100501.28
2017-09-04T13:26:22.351Z,100500.83
2017-09-04T13:28:55.547Z,100500.80
2017-09-04T13:31:28.487Z,100505.77
2017-09-04T13:37:07.196Z,100507.34
2017-09-04T13:39:51.809Z,100507.23
2017-09-04T13:42:24.842Z,100509.23
2017-09-04T13:44:57.990Z,100501.23
2017-09-04T13:47:35.358Z,100511.91
2017-09-04T13:50:05.037Z,100508.89
2017-09-04T13:55:48.894Z,100512.56
2017-09-04T14:01:35.938Z,100517.53
2017-09-04T14:04:08.895Z,100523.30
2017-09-04T14:06:42.110Z,100528.76
2017-09-04T14:09:15.146Z,100529.89
2017-09-04T14:11:48.097Z,100532.83
2017-09-04T14:14:21.240Z,100525.78
2017-09-04T14:16:51.205Z,100530.83
2017-09-04T14:19:18.639Z,100532.08
2017-09-04T14:21:46.074Z,100532.09
2017-09-04T14:24:13.534Z,100531.68
2017-09-04T14:26:40.978Z,100532.94
2017-09-04T14:29:08.430Z,100537.35
2017-09-04T14:31:35.877Z,100529.30
2017-09-04T14:34:03.350Z,100530.98
2017-09-04T14:36:30.793Z,100526.89
2017-09-04T14:38:58.264Z,100534.92
2017-09-04T14:41:25.710Z,100540.08
2017-09-04T14:43:59.799Z,100537.48
2017-09-04T14:46:38.099Z,100536.11
2017-09-04T14:49:05.566Z,100530.12
2017-09-04T14:51:33.015Z,100528.70
2017-09-04T14:54:00.483Z,100530.32
2017-09-04T14:56:28.346Z,100530.44
2017-09-04T14:58:55.807Z,100534.66
2017-09-04T15:01:23.283Z,100535.78
2017-09-04T15:03:50.826Z,100544.00
2017-09-04T15:06:18.269Z,100545.14
2017-09-04T15:08:45.730Z,100544.81
2017-09-04T15:11:13.166Z,100542.22
2017-09-04T15:13:40.836Z,100543.75
2017-09-04T15:16:08.312Z,100538.91
2017-09-04T15:18:35.784Z,100538.28
2017-09-04T15:21:03.230Z,100534.50
2017-09-04T15:23:30.698Z,100541.05
2017-09-04T15:25:58.160Z,100534.80
2017-09-04T15:28:25.602Z,100533.99
2017-09-04T15:30:53.058Z,100535.67
2017-09-04T15:33:20.504Z,100532.20
2017-09-04T15:35:47.968Z,100538.30
2017-09-04T15:38:15.409Z,100531.83
2017-09-04T15:40:42.967Z,100536.92
2017-09-04T15:43:10.497Z,100549.53
2017-09-04T15:45:38.113Z,100534.86
2017-09-04T15:48:05.630Z,100541.46
2017-09-04T15:50:33.200Z,100545.30
2017-09-04T15:53:00.732Z,100551.69
2017-09-04T15:55:28.215Z,100544.33
2017-09-04T15:57:55.708Z,100550.98
2017-09-04T16:00:23.172Z,100554.52
2017-09-04T16:02:50.638Z,100552.03
2017-09-04T16:05:18.103Z,100557.11
2017-09-04T16:07:49.116Z,100569.20
2017-09-04T16:10:16.581Z,100563.34
2017-09-04T16:12:54.322Z,100560.52
2017-09-04T16:15:21.827Z,100572.70
2017-09-04T16:21:02.536Z,100575.73
2017-09-04T16:23:39.903Z,100568.58
2017-09-04T16:26:07.358Z,100563.89
2017-09-04T16:28:35.588Z,100569.09
2017-09-04T16:31:03.051Z,100567.64
2017-09-04T16:33:30.500Z,100571.83
2017-09-04T16:36:14.851Z,100576.52
2017-09-04T16:38:43.139Z,100575.16
2017-09-04T16:41:14.154Z,100575.29
2017-09-04T16:46:47.073Z,100582.97
2017-09-04T16:49:26.280Z,100584.90
2017-09-04T16:51:59.308Z,100584.71
2017-09-04T16:57:26.782Z,100592.82
2017-09-04T16:59:54.239Z,100592.06
2017-09-04T17:02:23.078Z,100599.08
2017-09-04T17:04:50.846Z,100598.34
2017-09-04T17:07:18.329Z,100598.84
2017-09-04T17:09:48.882Z,100604.11
2017-09-04T17:12:16.353Z,100603.27
2017-09-04T17:14:43.817Z,100602.52
2017-09-04T17:17:13.337Z,100603.70
2017-09-04T17:19:46.402Z,100606.25
2017-09-04T17:22:14.805Z,100606.67
2017-09-04T17:24:42.740Z,100609.02
2017-09-04T17:27:10.195Z,100606.37
2017-09-04T17:29:37.666Z,100603.97
2017-09-04T17:32:05.128Z,100601.56
2017-09-04T17:34:32.591Z,100600.03
2017-09-04T17:37:00.030Z,100611.06
2017-09-04T17:39:27.518Z,100616.56
2017-09-04T17:41:55.018Z,100615.98
2017-09-04T17:44:22.473Z,100623.39
2017-09-04T17:46:49.915Z,100631.81
2017-09-04T17:49:17.373Z,100632.89
2017-09-04T17:51:44.825Z,100641.36
2017-09-04T17:54:12.284Z,100649.09
2017-09-04T17:56:39.713Z,100657.77
2017-09-04T17:59:07.179Z,100656.41
2017-09-04T18:01:34.634Z,100661.69
2017-09-04T18:04:02.103Z,100662.34
2017-09-04T18:06:29.618Z,100659.23
2017-09-04T18:08:57.079Z,100652.28
2017-09-04T18:11:24.543Z,100653.58
2017-09-04T18:13:52.025Z,100646.77
2017-09-04T18:16:19.471Z,100647.16
2017-09-04T18:18:46.959Z,100644.41
2017-09-04T18:21:14.401Z,100645.62
2017-09-04T18:23:41.863Z,100644.55
2017-09-04T18:26:09.492Z,100650.41
2017-09-04T18:28:36.988Z,100646.16
2017-09-04T18:31:04.446Z,100652.80
2017-09-04T18:33:32.616Z,100653.23
2017-09-04T18:36:00.074Z,100661.83
2017-09-04T18:38:27.514Z,100668.89
2017-09-04T18:40:54.966Z,100663.25
2017-09-04T18:43:22.406Z,100667.11
2017-09-04T18:45:50.135Z,100664.72
2017-09-04T18:48:17.575Z,100661.95
2017-09-04T18:50:45.029Z,100662.51
2017-09-04T18:53:12.462Z,100667.94
2017-09-04T18:55:39.957Z,100668.55
2017-09-04T18:58:07.389Z,100671.44
2017-09-04T19:00:34.890Z,100676.92
2017-09-04T19:03:02.418Z,100664.48
2017-09-04T19:05:29.877Z,100667.34
2017-09-04T19:07:57.329Z,100671.72
2017-09-04T19:10:24.798Z,100672.34
2017-09-04T19:12:52.338Z,100679.53
2017-09-04T19:15:19.804Z,100675.80
2017-09-04T19:17:47.251Z,100672.33
2017-09-04T19:20:14.734Z,100679.92
2017-09-04T19:22:42.179Z,100680.95
2017-09-04T19:25:09.643Z,100680.66
2017-09-04T19:27:37.106Z,100672.81
2017-09-04T19:30:04.574Z,100671.98
2017-09-04T19:32:32.005Z,100676.63
2017-09-04T19:34:59.468Z,100682.05
2017-09-04T19:37:26.925Z,100680.05
2017-09-04T19:39:54.385Z,100674.23
2017-09-04T19:42:21.817Z,100687.34
2017-09-04T19:44:49.307Z,100692.75
2017-09-04T19:47:16.763Z,100686.52
2017-09-04T19:49:44.198Z,100683.89
2017-09-04T19:52:11.658Z,100680.04
2017-09-04T19:54:39.105Z,100688.92
2017-09-04T19:57:06.573Z,100686.56
2017-09-04T19:59:34.010Z,100693.70
2017-09-04T20:02:01.507Z,100695.77
2017-09-04T20:04:29.033Z,100698.25
2017-09-04T20:06:56.544Z,100703.55
2017-09-04T20:09:23.986Z,100702.73
2017-09-04T20:11:51.481Z,100700.92
2017-09-04T20:14:18.946Z,100702.35
2017-09-04T20:16:46.511Z,100706.70
2017-09-04T20:19:14.009Z,100711.66
2017-09-04T20:21:41.470Z,100715.27
2017-09-04T20:24:08.926Z,100707.94
2017-09-04T20:26:36.386Z,100708.02
2017-09-04T20:29:03.949Z,100711.47
2017-09-04T20:31:31.527Z,100708.03
2017-09-04T20:33:58.968Z,100711.27
2017-09-04T20:36:26.506Z,100709.77
2017-09-04T20:38:53.960Z,100713.08
2017-09-04T20:41:21.470Z,100713.61
2017-09-04T20:43:48.922Z,100707.27
2017-09-04T20:46:16.459Z,100703.04
2017-09-04T20:48:43.903Z,100713.52
2017-09-04T20:51:11.375Z,100713.23
2017-09-04T20:53:38.844Z,100722.69
2017-09-04T20:56:06.394Z,100718.14
2017-09-04T20:58:33.844Z,100724.27
2017-09-04T21:01:01.309Z,100722.80
2017-09-04T21:03:28.761Z,100724.19
2017-09-04T21:05:56.250Z,100727.33
2017-09-04T21:08:23.710Z,100717.67
2017-09-04T21:10:51.146Z,100722.56
2017-09-04T21:13:18.605Z,100725.86
2017-09-04T21:15:46.049Z,100723.48
2017-09-04T21:18:13.506Z,100722.65
2017-09-04T21:20:40.949Z,100734.36
2017-09-04T21:23:08.445Z,100736.73
2017-09-04T21:25:35.910Z,100728.85
2017-09-04T21:28:03.383Z,100727.62
2017-09-04T21:30:30.819Z,100734.10
2017-09-04T21:32:58.726Z,100732.03
2017-09-04T21:35:26.167Z,100728.47
2017-09-04T21:37:53.638Z,100722.97
2017-09-04T21:40:21.074Z,100730.53
2017-09-04T21:42:48.534Z,100727.75
2017-09-04T21:45:15.974Z,100719.48
2017-09-04T21:47:43.433Z,100720.36
2017-09-04T21:50:10.883Z,100721.52
2017-09-04T21:52:38.346Z,100719.69
2017-09-04T21:55:05.806Z,100715.98
2017-09-04T21:57:33.270Z,100723.11
2017-09-04T22:00:00.723Z,100721.91
2017-09-04T22:02:28.197Z,100722.09
2017-09-04T22:04:55.686Z,100730.05
2017-09-04T22:07:23.175Z,100722.42
2017-09-04T22:09:50.619Z,100734.16
2017-09-04T22:12:18.053Z,100737.19
2017-09-04T22:14:45.509Z,100737.52
2017-09-04T22:17:12.955Z,100744.17
2017-09-04T22:19:40.449Z,100744.17
2017-09-04T22:22:07.885Z,100745.59
2017-09-04T22:24:35.353Z,100745.90
2017-09-04T22:27:02.797Z,100745.90
2017-09-04T22:29:30.273Z,100754.23
2017-09-04T22:31:57.705Z,100752.42
2017-09-04T22:34:25.199Z,100746.60
2017-09-04T22:36:52.643Z,100744.47
2017-09-04T22:39:20.125Z,100742.37
2017-09-04T22:41:47.576Z,100739.69
2017-09-04T22:44:15.038Z,100747.09
2017-09-04T22:46:42.499Z,100746.26
2017-09-04T22:49:09.960Z,100749.86
2017-09-04T22:51:37.395Z,100749.20
2017-09-04T22:54:04.862Z,100752.88
2017-09-04T22:56:32.290Z,100755.67
2017-09-04T22:59:01.122Z,100748.47
2017-09-04T23:01:28.558Z,100754.83
2017-09-04T23:03:56.027Z,100758.45
2017-09-04T23:06:23.478Z,100762.88
2017-09-04T23:08:50.937Z,100764.15
2017-09-04T23:11:18.374Z,100762.37
2017-09-04T23:13:45.848Z,100767.62
2017-09-04T23:16:13.286Z,100770.44
2017-09-04T23:18:40.768Z,100776.44
2017-09-04T23:21:08.206Z,100782.47
2017-09-04T23:23:35.689Z,100789.52
2017-09-04T23:26:03.139Z,100799.92
2017-09-04T23:28:36.282Z,100792.05
2017-09-04T23:31:03.713Z,100791.03
2017-09-04T23:33:31.182Z,100787.11
2017-09-04T23:35:58.621Z,100785.15
2017-09-04T23:38:26.108Z,100793.60
2017-09-04T23:40:53.580Z,100785.15
2017-09-04T23:43:21.039Z,100791.48
2017-09-04T23:45:48.520Z,100792.94
2017-09-04T23:48:15.971Z,100798.42
2017-09-04T23:50:43.460Z,100794.27
2017-09-04T23:53:10.910Z,100792.45
2017-09-04T23:55:38.369Z,100797.95
2017-09-04T23:58:05.801Z,100792.74
